createdAt,value
2023-04-04T00:04:30.011Z,2.22
2023-04-04T00:09:31.902Z,2.65
2023-04-04T00:14:33.819Z,3.20
2023-04-04T00:19:35.611Z,3.83
2023-04-04T00:24:37.695Z,2.92
2023-04-04T00:29:39.527Z,2.88
2023-04-04T00:34:41.589Z,3.72
2023-04-04T00:39:43.456Z,3.80
2023-04-04T00:44:45.605Z,2.40
2023-04-04T00:49:48.103Z,2.10
2023-04-04T00:54:50.176Z,2.25
2023-04-04T00:59:52.394Z,2.65
2023-04-04T01:04:54.664Z,1.85
2023-04-04T01:09:58.252Z,1.83
2023-04-04T01:15:00.451Z,2.00
2023-04-04T01:20:15.882Z,2.10
2023-04-04T01:25:30.304Z,1.88
2023-04-04T01:30:37.320Z,2.10
2023-04-04T01:35:53.418Z,2.20
2023-04-04T01:41:03.971Z,1.65
2023-04-04T01:46:08.170Z,1.73
2023-04-04T01:51:10.497Z,2.00
2023-04-04T01:56:13.264Z,2.08
2023-04-04T02:01:16.059Z,1.75
2023-04-04T02:06:17.908Z,1.98
2023-04-04T02:11:23.077Z,2.10
2023-04-04T02:16:25.801Z,2.13
2023-04-04T02:21:28.132Z,1.92
2023-04-04T02:26:30.667Z,1.95
2023-04-04T02:31:34.351Z,2.15
2023-04-04T02:36:36.832Z,1.90
2023-04-04T02:41:39.319Z,2.55
2023-04-04T02:46:42.153Z,2.33
2023-04-04T02:51:48.140Z,2.30
2023-04-04T02:56:50.195Z,1.83
2023-04-04T03:01:52.129Z,1.60
2023-04-04T03:06:54.735Z,2.10
2023-04-04T03:11:57.306Z,2.42
2023-04-04T03:16:59.694Z,1.83
2023-04-04T03:22:01.657Z,1.90
2023-04-04T03:27:07.490Z,2.58
2023-04-04T03:32:09.366Z,1.90
2023-04-04T03:37:11.433Z,2.42
2023-04-04T03:42:13.414Z,2.28
2023-04-04T03:47:15.511Z,1.80
2023-04-04T03:52:17.548Z,2.05
2023-04-04T03:57:19.757Z,2.10
2023-04-04T04:02:21.667Z,2.35
2023-04-04T04:07:23.656Z,2.40
2023-04-04T04:12:26.397Z,2.40
2023-04-04T04:17:28.289Z,2.75
2023-04-04T04:22:30.424Z,2.60
2023-04-04T04:27:32.327Z,1.70
2023-04-04T04:32:35.157Z,2.65
2023-04-04T04:37:37.286Z,2.28
2023-04-04T04:42:47.346Z,2.58
2023-04-04T04:47:53.086Z,2.58
2023-04-04T04:52:56.015Z,2.63
2023-04-04T04:57:57.906Z,3.30
2023-04-04T05:03:02.264Z,3.25
2023-04-04T05:08:12.920Z,2.67
2023-04-04T05:13:26.046Z,2.65
2023-04-04T05:18:28.535Z,2.60
2023-04-04T05:23:31.880Z,2.95
2023-04-04T05:28:34.818Z,2.25
2023-04-04T05:33:39.530Z,2.50
2023-04-04T05:39:10.579Z,2.75
2023-04-04T05:44:19.978Z,2.35
2023-04-04T05:49:22.258Z,2.58
2023-04-04T05:54:31.092Z,2.67
2023-04-04T05:59:36.809Z,3.13
2023-04-04T06:04:41.175Z,1.88
2023-04-04T06:09:45.629Z,2.47
2023-04-04T06:14:47.652Z,2.22
2023-04-04T06:19:55.823Z,2.42
2023-04-04T06:24:58.322Z,2.25
2023-04-04T06:30:02.999Z,2.30
2023-04-04T06:35:05.270Z,2.58
2023-04-04T06:40:16.353Z,2.30
2023-04-04T06:45:18.933Z,2.38
2023-04-04T06:50:23.063Z,2.50
2023-04-04T06:55:25.045Z,3.03
2023-04-04T07:00:27.151Z,2.75
2023-04-04T07:05:29.281Z,2.53
2023-04-04T07:10:31.235Z,1.88
2023-04-04T07:15:33.123Z,2.25
2023-04-04T07:20:35.275Z,2.60
2023-04-04T07:25:38.253Z,2.80
2023-04-04T07:30:40.458Z,2.95
2023-04-04T07:35:42.563Z,2.92
2023-04-04T07:40:44.450Z,2.92
2023-04-04T07:45:46.350Z,2.85
2023-04-04T07:50:48.283Z,2.92
2023-04-04T07:55:50.093Z,2.95
2023-04-04T08:00:51.895Z,2.92
2023-04-04T08:05:53.737Z,2.78
2023-04-04T08:10:55.722Z,2.38
2023-04-04T08:15:57.673Z,1.35
2023-04-04T08:20:59.514Z,2.53
2023-04-04T08:26:01.316Z,2.00
2023-04-04T08:31:04.404Z,1.70
2023-04-04T08:36:06.455Z,1.45
2023-04-04T08:41:08.841Z,1.25
2023-04-04T08:46:12.807Z,1.40
2023-04-04T08:51:17.597Z,6.40
2023-04-04T08:56:19.710Z,1.15
2023-04-04T09:01:23.135Z,1.00
2023-04-04T09:06:26.678Z,1.23
2023-04-04T09:11:31.839Z,1.10
2023-04-04T09:16:33.763Z,1.48
2023-04-04T09:21:36.021Z,1.13
2023-04-04T09:26:53.729Z,0.80
2023-04-04T09:31:55.796Z,1.00
2023-04-04T09:36:58.769Z,1.08
2023-04-04T09:42:01.586Z,1.20
2023-04-04T09:52:37.644Z,0.90
2023-04-04T09:57:41.773Z,1.00
2023-04-04T10:02:48.194Z,1.15
2023-04-04T10:07:50.123Z,1.05
2023-04-04T10:12:52.992Z,0.82
2023-04-04T10:17:55.648Z,1.27
2023-04-04T10:22:58.737Z,1.20
2023-04-04T10:28:00.702Z,1.13
2023-04-04T10:33:09.018Z,1.20
2023-04-04T10:38:12.201Z,1.23
2023-04-04T10:43:16.598Z,1.05
2023-04-04T10:48:19.951Z,1.02
2023-04-04T10:53:23.819Z,1.05
2023-04-04T10:58:26.548Z,1.10
2023-04-04T11:03:28.454Z,1.50
2023-04-04T11:08:35.607Z,0.80
2023-04-04T11:13:37.775Z,1.00
2023-04-04T11:18:40.340Z,0.73
2023-04-04T11:23:48.686Z,0.90
2023-04-04T11:28:50.584Z,0.75
2023-04-04T11:34:09.504Z,0.75
2023-04-04T11:39:30.993Z,1.10
2023-04-04T11:44:40.001Z,0.82
2023-04-04T11:49:43.177Z,1.08
2023-04-04T11:54:46.996Z,0.90
2023-04-04T11:59:51.142Z,0.80
2023-04-04T12:04:53.518Z,0.93
2023-04-04T12:09:57.029Z,1.45
2023-04-04T12:15:06.790Z,0.90
2023-04-04T12:20:23.578Z,1.23
2023-04-04T12:25:28.583Z,1.27
2023-04-04T12:30:30.771Z,1.42
2023-04-04T12:35:33.130Z,1.02
2023-04-04T12:40:37.532Z,1.08
2023-04-04T12:45:40.526Z,1.20
2023-04-04T12:50:57.840Z,1.00
2023-04-04T12:56:04.902Z,1.08
2023-04-04T13:01:07.207Z,0.93
2023-04-04T13:06:32.766Z,0.88
2023-04-04T13:12:03.744Z,1.40
2023-04-04T13:22:09.514Z,1.13
2023-04-04T13:27:11.377Z,1.02
2023-04-04T13:32:13.173Z,1.10
2023-04-04T13:37:15.016Z,0.98
2023-04-04T13:42:16.832Z,1.00
2023-04-04T13:47:18.704Z,1.17
2023-04-04T13:52:20.698Z,1.35
2023-04-04T13:57:22.543Z,0.95
2023-04-04T14:02:25.817Z,1.05
2023-04-04T14:07:27.646Z,1.10
2023-04-04T14:12:29.453Z,1.23
2023-04-04T14:17:31.580Z,0.80
2023-04-04T14:22:34.193Z,1.50
2023-04-04T14:27:36.174Z,1.33
2023-04-04T14:32:38.021Z,1.48
2023-04-04T14:37:39.863Z,0.85
2023-04-04T14:42:41.842Z,0.98
2023-04-04T14:47:43.722Z,1.23
2023-04-04T14:52:47.880Z,0.82
2023-04-04T15:02:56.080Z,0.80
2023-04-04T15:07:57.907Z,1.13
2023-04-04T15:12:59.708Z,1.35
2023-04-04T15:18:02.880Z,1.35
2023-04-04T15:23:05.160Z,1.40
2023-04-04T15:28:06.978Z,1.10
2023-04-04T15:33:09.279Z,1.10
2023-04-04T15:38:11.158Z,1.30
2023-04-04T15:43:12.963Z,0.95
2023-04-04T15:48:14.764Z,0.73
2023-04-04T15:53:17.902Z,0.75
2023-04-04T15:58:19.777Z,0.90
2023-04-04T16:03:21.833Z,1.05
2023-04-04T16:08:23.832Z,1.00
2023-04-04T16:13:25.868Z,1.00
2023-04-04T16:18:28.130Z,0.90
2023-04-04T16:23:31.678Z,1.13
2023-04-04T16:28:33.469Z,0.70
2023-04-04T16:33:35.426Z,1.15
2023-04-04T16:38:37.373Z,0.95
2023-04-04T16:43:39.361Z,1.17
2023-04-04T16:48:41.306Z,1.02
2023-04-04T16:53:43.103Z,1.50
2023-04-04T16:58:45.824Z,1.73
2023-04-04T17:03:47.741Z,1.40
2023-04-04T17:08:49.994Z,0.70
2023-04-04T17:13:51.816Z,1.08
2023-04-04T17:18:53.832Z,1.10
2023-04-04T17:23:55.840Z,1.00
2023-04-04T17:28:57.637Z,1.00
2023-04-04T17:33:59.492Z,0.70
2023-04-04T17:39:01.444Z,1.08
2023-04-04T17:44:03.662Z,1.25
2023-04-04T17:49:07.042Z,1.33
2023-04-04T17:54:08.977Z,1.45
2023-04-04T17:59:12.833Z,1.20
2023-04-04T18:04:14.717Z,1.02
2023-04-04T18:09:18.420Z,1.83
2023-04-04T18:14:20.305Z,1.15
2023-04-04T18:19:22.150Z,1.50
2023-04-04T18:24:26.045Z,1.17
2023-04-04T18:29:30.836Z,0.70
2023-04-04T18:34:33.184Z,1.38
2023-04-04T18:39:35.075Z,1.40
2023-04-04T18:44:36.974Z,1.20
2023-04-04T18:49:38.808Z,1.50
2023-04-04T18:54:40.922Z,1.17
2023-04-04T18:59:42.752Z,1.50
2023-04-04T19:04:46.869Z,1.30
2023-04-04T19:09:50.545Z,1.20
2023-04-04T19:14:52.361Z,1.10
2023-04-04T19:19:54.197Z,1.20
2023-04-04T19:24:56.185Z,1.50
2023-04-04T19:29:57.987Z,1.50
2023-04-04T19:34:59.807Z,1.10
2023-04-04T19:40:01.794Z,1.92
2023-04-04T19:45:12.433Z,2.30
2023-04-04T19:50:34.702Z,3.85
2023-04-04T19:55:40.417Z,1.73
2023-04-04T20:00:42.599Z,1.70
2023-04-04T20:05:47.583Z,3.90
2023-04-04T20:10:51.477Z,1.92
2023-04-04T20:16:01.619Z,2.22
2023-04-04T20:21:24.369Z,2.15
2023-04-04T20:26:35.421Z,2.20
2023-04-04T20:31:51.484Z,1.65
2023-04-04T20:36:53.704Z,2.63
2023-04-04T20:41:55.990Z,2.40
2023-04-04T20:46:58.102Z,3.60
2023-04-04T20:51:59.993Z,4.68
2023-04-04T20:57:02.271Z,3.42
2023-04-04T21:02:23.470Z,4.07
2023-04-04T21:07:35.930Z,3.60
2023-04-04T21:12:37.728Z,2.78
2023-04-04T21:17:40.022Z,2.58
2023-04-04T21:22:47.058Z,2.35
2023-04-04T21:27:54.516Z,2.30
2023-04-04T21:32:56.393Z,2.78
2023-04-04T21:37:58.255Z,2.40
2023-04-04T21:43:00.072Z,2.00
2023-04-04T21:48:01.979Z,3.13
2023-04-04T21:53:03.827Z,2.45
2023-04-04T21:58:05.628Z,2.80
2023-04-04T22:03:07.578Z,2.17
2023-04-04T22:08:09.393Z,2.45
2023-04-04T22:13:14.906Z,2.13
2023-04-04T22:18:17.357Z,2.13
2023-04-04T22:23:21.769Z,1.95
2023-04-04T22:28:25.094Z,2.15
2023-04-04T22:33:29.930Z,2.28
2023-04-04T22:38:31.830Z,2.28
2023-04-04T22:43:33.803Z,2.00
2023-04-04T22:48:41.250Z,1.90
2023-04-04T22:53:44.441Z,2.38
2023-04-04T22:58:46.529Z,1.90
2023-04-04T23:03:48.416Z,2.30
2023-04-04T23:08:50.589Z,2.25
2023-04-04T23:13:53.999Z,2.15
2023-04-04T23:18:55.846Z,2.40
2023-04-04T23:23:58.424Z,1.85
2023-04-04T23:29:01.590Z,2.20
2023-04-04T23:34:03.465Z,2.35
2023-04-04T23:39:05.489Z,2.15
2023-04-04T23:44:07.395Z,2.30
2023-04-04T23:49:09.644Z,2.72
2023-04-04T23:54:13.038Z,2.72
2023-04-04T23:59:14.872Z,2.50
